Time;durP1;ratioP1;P1;durP2;ratioP2;P2;SDS_P1;SDS_P2;PMS_P1;PMS_P2;Temp;Humidity;BMP_temperature;BMP_pressure;BME280_temperature;BME280_humidity;BME280_pressure;Samples;Min_cycle;Max_cycle;Signal;HPM_P1;HPM_P2
2023/10/17 00:02:27;;;;;;;7.75;1.33;;;16.00;99.90;;;;;;5010980;28;20285;-79
2023/10/17 00:04:59;;;;;;;6.80;1.45;;;15.80;99.90;;;;;;5023786;28;20858;-79
2023/10/17 00:07:30;;;;;;;6.70;1.23;;;15.90;99.90;;;;;;5026683;28;20257;-79
2023/10/17 00:10:04;;;;;;;6.15;1.27;;;16.00;99.90;;;;;;5012273;28;20239;-79
2023/10/17 00:12:44;;;;;;;7.13;1.65;;;16.00;99.90;;;;;;5016235;28;20193;-78
2023/10/17 00:15:27;;;;;;;6.85;1.50;;;15.80;99.90;;;;;;5030506;28;20208;-79
2023/10/17 00:18:03;;;;;;;7.05;1.80;;;15.90;99.90;;;;;;5030555;28;20209;-79
2023/10/17 00:20:37;;;;;;;6.70;1.90;;;15.90;99.90;;;;;;5029822;28;20217;-79
2023/10/17 00:23:14;;;;;;;6.85;1.70;;;15.90;99.90;;;;;;5011134;28;20205;-78
2023/10/17 00:25:46;;;;;;;7.15;2.20;;;15.90;99.90;;;;;;5011350;28;20688;-78
2023/10/17 00:28:22;;;;;;;7.03;1.67;;;15.60;99.90;;;;;;5012077;28;20228;-78
2023/10/17 00:30:54;;;;;;;6.90;1.58;;;15.30;99.90;;;;;;5012172;28;20280;-79
2023/10/17 00:33:32;;;;;;;8.65;1.52;;;15.20;99.90;;;;;;5012931;28;20599;-79
2023/10/17 00:36:14;;;;;;;8.50;2.08;;;15.20;99.90;;;;;;5024892;28;20206;-79
2023/10/17 00:38:47;;;;;;;4.72;1.30;;;15.10;99.90;;;;;;5019541;28;20201;-79
2023/10/17 00:41:29;;;;;;;7.57;1.52;;;15.20;99.90;;;;;;5031480;28;20324;-79
2023/10/17 00:44:00;;;;;;;11.00;1.80;;;15.30;99.90;;;;;;5027972;28;20208;-79
2023/10/17 00:46:38;;;;;;;7.95;1.75;;;15.70;99.90;;;;;;5029881;28;20205;-79
2023/10/17 00:49:17;;;;;;;5.22;1.58;;;16.00;99.90;;;;;;5019669;28;20209;-79
2023/10/17 00:51:48;;;;;;;8.18;1.88;;;16.10;99.90;;;;;;5032824;28;20213;-79
2023/10/17 00:54:25;;;;;;;7.03;1.33;;;16.20;99.90;;;;;;5026025;28;20193;-79
2023/10/17 00:56:56;;;;;;;6.47;1.80;;;16.30;99.90;;;;;;5024099;28;20271;-79
2023/10/17 00:59:35;;;;;;;6.15;1.60;;;16.50;99.90;;;;;;5021634;28;20230;-78
2023/10/17 01:02:15;;;;;;;9.07;1.80;;;16.70;99.90;;;;;;5036304;28;20224;-78
2023/10/17 01:04:58;;;;;;;7.68;1.67;;;16.70;99.90;;;;;;5029681;28;20205;-78
2023/10/17 01:07:40;;;;;;;7.40;2.08;;;17.00;99.90;;;;;;5030146;28;20640;-79
2023/10/17 01:10:20;;;;;;;8.90;2.08;;;17.20;99.90;;;;;;5031227;28;20276;-78
2023/10/17 01:13:04;;;;;;;11.20;2.00;;;17.40;99.90;;;;;;5029419;28;20233;-78
2023/10/17 01:15:44;;;;;;;4.50;1.20;;;17.70;99.90;;;;;;5029846;28;20384;-79
2023/10/17 01:18:19;;;;;;;9.30;2.10;;;17.60;99.90;;;;;;5027999;28;20288;-78
2023/10/17 01:20:54;;;;;;;8.15;1.52;;;17.50;99.90;;;;;;5011135;28;20229;-78
2023/10/17 01:23:29;;;;;;;7.10;1.63;;;17.60;99.90;;;;;;5013700;28;20596;-78
2023/10/17 01:26:08;;;;;;;8.48;1.80;;;17.60;99.90;;;;;;5019842;28;20287;-77
2023/10/17 01:28:50;;;;;;;8.35;2.17;;;17.50;99.90;;;;;;5026898;28;20194;-78
2023/10/17 01:31:43;;;;;;;5.13;1.40;;;17.30;99.90;;;;;;5029580;28;20205;-79
2023/10/17 01:34:14;;;;;;;6.47;1.95;;;17.40;99.90;;;;;;5028992;28;20212;-80
2023/10/17 01:36:46;;;;;;;5.65;1.40;;;17.70;99.90;;;;;;5032794;28;20561;-79
2023/10/17 01:39:17;;;;;;;7.03;1.63;;;18.00;99.90;;;;;;5038702;28;20636;-78
2023/10/17 01:41:57;;;;;;;9.70;2.10;;;18.30;99.90;;;;;;5036212;28;20209;-79
2023/10/17 01:44:40;;;;;;;6.10;1.48;;;18.50;99.90;;;;;;5028440;28;20274;-80
2023/10/17 01:47:18;;;;;;;9.23;2.22;;;18.60;99.90;;;;;;5019537;28;20206;-80
2023/10/17 01:49:57;;;;;;;5.40;1.30;;;18.60;99.90;;;;;;5015698;28;20244;-79
2023/10/17 01:52:31;;;;;;;5.97;1.42;;;18.40;99.90;;;;;;5020476;28;20309;-78
2023/10/17 01:55:14;;;;;;;5.85;1.42;;;18.20;99.90;;;;;;5036646;28;20236;-78
2023/10/17 01:57:54;;;;;;;4.65;1.50;;;17.90;99.90;;;;;;5040242;28;20264;-78
2023/10/17 02:00:29;;;;;;;6.13;1.52;;;17.90;99.90;;;;;;5046938;28;20229;-79
2023/10/17 02:03:12;;;;;;;4.90;1.60;;;18.00;99.90;;;;;;5047229;28;20229;-78
2023/10/17 02:05:47;;;;;;;5.75;1.40;;;18.00;99.90;;;;;;5054253;28;20212;-78
2023/10/17 02:08:22;;;;;;;4.63;1.40;;;18.20;99.90;;;;;;5039783;28;20191;-79
2023/10/17 02:11:01;;;;;;;6.50;1.70;;;18.30;99.90;;;;;;5015794;28;20189;-79
2023/10/17 02:13:50;;;;;;;7.65;1.63;;;18.50;99.90;;;;;;5031786;28;20239;-79
2023/10/17 02:16:21;;;;;;;11.10;2.25;;;18.30;99.90;;;;;;5033406;28;20197;-79
2023/10/17 02:18:56;;;;;;;9.70;2.03;;;18.10;99.90;;;;;;5033643;28;20201;-79
2023/10/17 02:21:29;;;;;;;8.82;2.40;;;18.30;99.90;;;;;;5032930;28;20598;-78
2023/10/17 02:24:19;;;;;;;7.85;1.90;;;18.60;99.90;;;;;;5027871;28;20216;-80
2023/10/17 02:27:08;;;;;;;7.75;1.65;;;18.70;99.90;;;;;;5030874;28;20205;-78
2023/10/17 02:29:58;;;;;;;6.72;1.42;;;18.70;99.90;;;;;;5032485;28;20285;-78
2023/10/17 02:32:44;;;;;;;7.18;1.40;;;18.80;99.90;;;;;;5013052;28;20252;-78
2023/10/17 02:35:16;;;;;;;7.03;1.30;;;18.80;99.90;;;;;;5014360;28;20214;-78
2023/10/17 02:37:47;;;;;;;8.73;1.80;;;18.90;99.90;;;;;;5033387;28;20204;-78
2023/10/17 02:40:23;;;;;;;6.85;1.40;;;19.20;99.90;;;;;;5032765;28;20722;-78
2023/10/17 02:42:57;;;;;;;7.80;1.50;;;19.40;99.90;;;;;;5034142;28;20240;-79
2023/10/17 02:45:53;;;;;;;6.32;1.33;;;19.50;99.90;;;;;;5035854;28;20197;-79
2023/10/17 02:48:38;;;;;;;5.72;1.50;;;19.70;99.90;;;;;;5035079;28;20208;-78
2023/10/17 02:51:36;;;;;;;3.75;1.08;;;19.80;99.90;;;;;;5026403;28;20603;-79
2023/10/17 02:54:20;;;;;;;4.25;1.23;;;19.90;99.90;;;;;;5032869;28;20221;-79
2023/10/17 02:57:08;;;;;;;3.65;1.20;;;20.20;99.90;;;;;;5026901;28;20205;-79
2023/10/17 02:59:46;;;;;;;5.85;1.27;;;20.20;99.90;;;;;;5037328;28;20205;-78
2023/10/17 03:02:19;;;;;;;8.98;1.92;;;20.20;99.90;;;;;;5032447;28;20221;-78
2023/10/17 03:04:52;;;;;;;6.35;1.38;;;20.00;99.90;;;;;;5031655;28;20197;-79
2023/10/17 03:07:34;;;;;;;3.50;1.15;;;20.00;99.90;;;;;;5042589;28;20205;-79
2023/10/17 03:10:37;;;;;;;6.38;1.35;;;19.80;99.90;;;;;;5044702;28;20205;-78
2023/10/17 03:13:25;;;;;;;6.03;1.48;;;19.50;99.90;;;;;;5034737;28;20288;-79
2023/10/17 03:16:14;;;;;;;3.15;0.88;;;19.30;99.90;;;;;;5024447;28;20205;-80
2023/10/17 03:18:50;;;;;;;4.72;1.17;;;19.20;99.90;;;;;;5013718;28;20289;-79
2023/10/17 03:21:39;;;;;;;4.70;1.17;;;19.00;99.90;;;;;;5013051;28;20704;-78
2023/10/17 03:24:13;;;;;;;5.65;1.25;;;18.90;99.90;;;;;;5012788;28;20198;-79
2023/10/17 03:27:03;;;;;;;7.70;1.27;;;18.90;99.90;;;;;;5022872;28;20185;-79
2023/10/17 03:29:56;;;;;;;4.55;1.30;;;18.80;99.90;;;;;;5046054;28;20652;-80
2023/10/17 03:32:53;;;;;;;9.32;1.20;;;18.70;99.90;;;;;;5032183;28;20224;-80
2023/10/17 03:38:41;;;;;;;4.00;1.17;;;18.60;99.90;;;;;;5011773;28;20186;-78
2023/10/17 03:41:24;;;;;;;5.85;1.20;;;18.70;99.90;;;;;;5011816;28;20230;-78
2023/10/17 03:44:01;;;;;;;6.93;1.17;;;18.70;99.90;;;;;;5020313;28;20201;-78
2023/10/17 03:46:55;;;;;;;4.40;1.08;;;18.90;99.90;;;;;;5028496;28;20204;-78
2023/10/17 03:49:36;;;;;;;7.57;1.05;;;19.10;99.90;;;;;;5029020;28;20197;-79
2023/10/17 03:52:10;;;;;;;8.75;1.35;;;19.50;99.90;;;;;;5026335;28;20221;-78
2023/10/17 03:54:59;;;;;;;6.18;1.00;;;19.50;99.90;;;;;;5034763;28;20256;-77
2023/10/17 03:57:52;;;;;;;5.95;1.48;;;19.60;99.90;;;;;;5032987;28;20205;-78
2023/10/17 04:00:27;;;;;;;4.90;1.10;;;19.60;99.90;;;;;;5038895;28;20232;-77
2023/10/17 04:02:59;;;;;;;3.65;1.00;;;19.40;99.90;;;;;;5031745;28;20240;-77
2023/10/17 04:05:38;;;;;;;3.25;1.00;;;19.20;99.90;;;;;;5020327;28;20547;-79
2023/10/17 04:08:31;;;;;;;4.13;1.15;;;19.00;99.90;;;;;;5024547;28;20222;-78
2023/10/17 04:11:17;;;;;;;1.90;0.95;;;18.90;99.90;;;;;;5041179;28;20209;-78
2023/10/17 04:14:12;;;;;;;8.10;0.95;;;18.90;99.90;;;;;;5041413;28;20255;-76
2023/10/17 04:20:03;;;;;;;1.90;0.73;;;18.70;99.90;;;;;;5030501;28;20197;-77
2023/10/17 04:22:51;;;;;;;3.05;0.90;;;18.70;99.90;;;;;;5025000;28;20210;-80
2023/10/17 04:25:34;;;;;;;3.53;0.80;;;18.90;99.90;;;;;;5017254;28;20285;-79
2023/10/17 04:28:16;;;;;;;2.47;0.75;;;18.90;99.90;;;;;;5032063;28;20224;-78
2023/10/17 04:30:48;;;;;;;4.90;1.02;;;19.10;99.90;;;;;;5035432;28;20254;-78
2023/10/17 04:33:22;;;;;;;2.35;0.70;;;19.40;99.90;;;;;;5025876;28;20185;-77
2023/10/17 04:35:59;;;;;;;2.45;0.68;;;19.50;99.90;;;;;;5030059;28;20208;-78
2023/10/17 04:38:39;;;;;;;5.78;1.05;;;19.80;99.90;;;;;;5039461;28;20189;-78
2023/10/17 04:41:30;;;;;;;5.05;1.02;;;20.00;99.90;;;;;;5032687;28;20217;-78
2023/10/17 04:44:15;;;;;;;2.90;0.90;;;20.40;99.90;;;;;;5013341;28;20208;-78
2023/10/17 04:47:07;;;;;;;5.45;1.23;;;20.50;99.90;;;;;;5025044;28;20217;-77
2023/10/17 04:49:40;;;;;;;2.85;0.98;;;20.70;99.90;;;;;;5018194;28;20193;-78
2023/10/17 04:52:21;;;;;;;4.30;1.17;;;20.40;99.90;;;;;;5033464;28;20197;-79
2023/10/17 04:55:01;;;;;;;5.15;1.10;;;20.20;99.90;;;;;;5032904;28;20197;-79
2023/10/17 05:01:10;;;;;;;2.63;0.93;;;20.00;99.90;;;;;;5036392;28;20193;-78
2023/10/17 05:03:45;;;;;;;3.83;1.20;;;19.90;99.90;;;;;;5027846;28;20193;-80
2023/10/17 05:06:45;;;;;;;3.85;0.98;;;19.80;99.90;;;;;;5028762;28;20196;-78
2023/10/17 06:16:49;;;;;;;2.70;0.70;;;19.70;99.90;;;;;;5020408;28;20206;-79
2023/10/17 06:17:21;;;;;;;6.60;2.15;;;17.70;99.90;;;;;;5012356;28;20204;-78
2023/10/17 06:20:44;;;;;;;5.40;1.45;;;17.70;99.90;;;;;;5030731;28;20233;-78
2023/10/17 06:23:24;;;;;;;14.57;5.13;;;17.60;99.90;;;;;;5025718;28;20210;-78
2023/10/17 06:32:48;;;;;;;8.15;2.05;;;17.70;99.90;;;;;;5013081;28;20695;-80
2023/10/17 06:35:23;;;;;;;8.23;2.10;;;17.90;99.90;;;;;;5007387;28;20208;-78
2023/10/17 06:38:03;;;;;;;4.90;2.17;;;17.90;99.90;;;;;;4997051;28;20284;-79
2023/10/17 06:40:54;;;;;;;10.32;1.90;;;18.00;99.90;;;;;;5012658;28;20198;-77
2023/10/17 06:43:29;;;;;;;6.28;1.70;;;17.90;99.90;;;;;;4997671;28;20198;-79
2023/10/17 06:46:12;;;;;;;6.70;1.50;;;17.90;99.90;;;;;;5000391;28;20201;-80
2023/10/17 06:48:54;;;;;;;6.30;1.45;;;17.80;99.90;;;;;;5014506;28;20197;-79
2023/10/17 06:51:37;;;;;;;8.43;1.73;;;17.70;99.90;;;;;;5006030;28;20199;-78
2023/10/17 06:54:12;;;;;;;6.80;1.50;;;17.50;99.90;;;;;;5005513;28;20186;-79
2023/10/17 06:56:44;;;;;;;7.30;1.63;;;17.40;99.90;;;;;;5013643;28;20192;-79
2023/10/17 06:59:35;;;;;;;6.82;1.65;;;17.30;99.90;;;;;;4999370;28;20203;-78
2023/10/17 07:02:16;;;;;;;9.10;2.05;;;17.10;99.90;;;;;;4996171;28;20230;-78
2023/10/17 07:05:01;;;;;;;6.60;1.50;;;17.00;99.90;;;;;;5014099;28;20206;-78
2023/10/17 07:07:52;;;;;;;8.20;1.67;;;17.10;99.90;;;;;;5003974;28;20202;-78
2023/10/17 07:10:40;;;;;;;9.73;1.90;;;17.10;99.90;;;;;;5000553;28;20210;-78
2023/10/17 07:13:54;;;;;;;5.88;1.80;;;17.10;99.90;;;;;;5000673;28;20254;-78
2023/10/17 07:16:33;;;;;;;6.30;1.45;;;17.10;99.90;;;;;;4997766;28;20199;-78
2023/10/17 07:22:41;;;;;;;6.03;1.20;;;17.10;99.90;;;;;;5014862;28;20368;-76
2023/10/17 07:28:33;;;;;;;6.97;1.35;;;17.00;99.90;;;;;;5010847;28;20190;-78
2023/10/17 07:31:10;;;;;;;6.07;1.83;;;16.90;99.90;;;;;;5012339;28;20206;-76
2023/10/17 07:52:33;;;;;;;7.30;1.70;;;16.60;99.90;;;;;;5010630;28;20232;-78
2023/10/17 07:55:17;;;;;;;3.88;1.17;;;16.70;99.90;;;;;;5011067;28;20207;-79
2023/10/17 07:57:51;;;;;;;7.07;2.22;;;16.50;99.90;;;;;;5006320;28;20629;-78
2023/10/17 08:00:33;;;;;;;6.68;1.45;;;16.30;99.90;;;;;;4999885;28;20190;-78
2023/10/17 08:03:18;;;;;;;7.18;1.83;;;16.20;99.90;;;;;;5014322;28;20218;-79
2023/10/17 08:08:52;;;;;;;7.20;1.75;;;16.20;99.90;;;;;;5014685;28;20202;-79
2023/10/17 08:11:54;;;;;;;6.03;1.20;;;16.10;99.90;;;;;;5018962;28;20244;-79
2023/10/17 08:17:53;;;;;;;5.93;1.80;;;16.10;99.90;;;;;;5024451;28;20185;-79
2023/10/17 08:20:54;;;;;;;9.93;3.35;;;16.00;99.90;;;;;;5018350;28;20202;-79
2023/10/17 08:23:54;;;;;;;8.95;3.63;;;16.10;99.90;;;;;;5007670;28;20292;-79
2023/10/17 08:33:15;;;;;;;4.93;2.15;;;16.00;99.90;;;;;;5014038;28;20257;-79
2023/10/17 08:36:10;;;;;;;9.70;2.83;;;16.10;99.90;;;;;;5013243;28;20186;-78
2023/10/17 08:38:40;;;;;;;6.63;2.90;;;16.00;99.90;;;;;;4999990;28;20658;-79
2023/10/17 08:41:23;;;;;;;8.98;2.53;;;16.00;99.90;;;;;;4996475;28;20294;-80
2023/10/17 08:44:05;;;;;;;8.13;1.80;;;16.10;99.90;;;;;;4993448;28;20585;-79
2023/10/17 08:46:56;;;;;;;7.68;2.20;;;16.10;99.90;;;;;;4996212;28;20209;-79
2023/10/17 08:50:02;;;;;;;7.72;2.50;;;16.20;99.90;;;;;;4995999;28;20260;-79
2023/10/17 08:52:53;;;;;;;8.02;3.88;;;16.20;99.90;;;;;;4996031;28;20691;-79
2023/10/17 08:55:31;;;;;;;6.78;2.88;;;16.10;99.90;;;;;;4996645;28;20202;-81
2023/10/17 08:58:32;;;;;;;8.65;2.60;;;16.00;99.90;;;;;;5016344;28;20655;-81
2023/10/17 09:01:10;;;;;;;6.80;1.60;;;16.00;99.90;;;;;;5005758;28;20223;-80
2023/10/17 09:03:46;;;;;;;10.43;3.22;;;16.10;99.90;;;;;;5001852;28;20197;-79
2023/10/17 09:06:37;;;;;;;7.45;2.55;;;16.10;99.90;;;;;;5001768;28;20650;-80
2023/10/17 09:13:14;;;;;;;23.00;10.63;;;16.10;99.90;;;;;;4998788;28;20670;-79
2023/10/17 09:15:55;;;;;;;9.07;3.22;;;16.10;99.90;;;;;;4997767;28;20213;-78
2023/10/17 09:18:47;;;;;;;12.20;3.67;;;16.10;99.90;;;;;;5010460;28;20262;-79
2023/10/17 09:21:49;;;;;;;8.82;1.77;;;16.20;99.90;;;;;;5017274;28;20224;-79
2023/10/17 09:24:46;;;;;;;9.57;2.00;;;16.10;99.90;;;;;;5016761;28;20217;-79
2023/10/17 09:27:25;;;;;;;5.97;1.80;;;16.20;99.90;;;;;;5013575;28;20207;-79
2023/10/17 09:30:27;;;;;;;8.82;2.15;;;16.20;99.90;;;;;;4998101;28;20198;-79
2023/10/17 09:33:05;;;;;;;9.18;2.38;;;16.20;99.90;;;;;;5007946;28;20724;-79
2023/10/17 09:35:42;;;;;;;6.35;1.90;;;16.20;99.90;;;;;;5008769;28;20612;-80
2023/10/17 09:44:46;;;;;;;9.15;1.85;;;16.20;99.90;;;;;;5016887;28;20221;-80
2023/10/17 09:47:26;;;;;;;9.75;1.90;;;16.20;99.90;;;;;;5022073;28;20186;-80
2023/10/17 09:56:59;;;;;;;9.15;1.90;;;16.20;99.90;;;;;;5014602;28;20194;-80
2023/10/17 09:59:49;;;;;;;6.53;1.70;;;16.20;99.90;;;;;;5017096;28;20225;-80
2023/10/17 10:05:28;;;;;;;18.13;7.63;;;16.20;99.90;;;;;;5004538;28;20198;-80
2023/10/17 10:08:03;;;;;;;10.90;3.30;;;16.20;99.90;;;;;;5002042;28;20191;-81
2023/10/17 10:11:05;;;;;;;7.65;2.17;;;16.20;99.90;;;;;;5010316;28;20189;-80
2023/10/17 10:16:59;;;;;;;9.25;1.83;;;16.10;99.90;;;;;;4979697;28;20207;-81
2023/10/17 10:23:32;;;;;;;6.13;1.70;;;16.10;99.90;;;;;;4984244;28;20234;-80
2023/10/17 10:26:47;;;;;;;7.60;1.95;;;16.20;99.90;;;;;;4998925;28;20225;-80
2023/10/17 10:30:23;;;;;;;8.55;1.70;;;16.10;99.90;;;;;;5005227;28;20183;-80
2023/10/17 10:36:29;;;;;;;8.30;2.28;;;16.10;99.90;;;;;;4981156;28;20255;-81
2023/10/17 10:39:51;;;;;;;4.95;1.48;;;16.10;99.90;;;;;;4991270;28;20506;-81
2023/10/17 10:42:30;;;;;;;5.75;1.67;;;16.10;99.90;;;;;;4978390;28;20230;-80
2023/10/17 10:45:02;;;;;;;7.15;1.75;;;16.10;99.90;;;;;;4983529;28;20208;-80
2023/10/17 10:47:45;;;;;;;8.02;1.50;;;16.10;99.90;;;;;;4995775;28;20233;-80
2023/10/17 10:50:18;;;;;;;3.65;1.10;;;16.10;99.90;;;;;;4978279;28;20199;-80
2023/10/17 10:53:05;;;;;;;8.20;1.88;;;16.10;99.90;;;;;;4978235;28;20560;-81
2023/10/17 10:55:59;;;;;;;7.60;1.30;;;16.10;99.90;;;;;;4977066;28;20290;-80
2023/10/17 10:58:51;;;;;;;3.67;1.23;;;16.10;99.90;;;;;;4978293;28;20203;-79
2023/10/17 11:01:50;;;;;;;4.82;1.45;;;16.10;99.90;;;;;;4966567;28;20218;-80
2023/10/17 11:04:47;;;;;;;5.40;1.60;;;16.10;99.90;;;;;;4963790;28;20302;-80
2023/10/17 11:10:22;;;;;;;10.00;1.77;;;16.00;99.90;;;;;;5025045;28;20196;-81
2023/10/17 11:13:18;;;;;;;5.95;1.40;;;16.00;99.90;;;;;;5009954;28;20306;-81
2023/10/17 11:15:52;;;;;;;8.63;1.48;;;16.00;99.90;;;;;;5008503;28;20626;-81
2023/10/17 11:18:26;;;;;;;7.40;1.30;;;16.00;99.90;;;;;;5023765;28;20652;-82
2023/10/17 11:23:55;;;;;;;6.40;1.30;;;15.80;99.90;;;;;;5012188;28;20222;-81
2023/10/17 11:26:31;;;;;;;8.23;1.70;;;15.80;99.90;;;;;;5020162;28;20636;-80
2023/10/17 11:29:03;;;;;;;4.95;1.58;;;15.80;99.90;;;;;;5011225;28;20213;-80
2023/10/17 11:31:42;;;;;;;4.72;1.17;;;15.80;99.90;;;;;;5017769;28;20233;-80
2023/10/17 11:35:04;;;;;;;4.40;1.00;;;15.90;99.90;;;;;;5022511;28;20633;-81
2023/10/17 11:37:45;;;;;;;9.23;2.00;;;15.90;99.90;;;;;;5023526;28;20248;-81
2023/10/17 11:40:38;;;;;;;4.38;1.27;;;15.90;99.90;;;;;;5020585;28;20185;-81
2023/10/17 11:43:50;;;;;;;7.40;1.55;;;15.80;99.90;;;;;;5008360;28;20261;-81
2023/10/17 11:49:28;;;;;;;6.20;1.50;;;15.90;99.90;;;;;;5030587;28;20194;-82
2023/10/17 11:52:43;;;;;;;8.55;1.20;;;16.00;99.90;;;;;;5015030;28;20290;-82
2023/10/17 11:55:17;;;;;;;5.93;1.13;;;16.00;99.90;;;;;;5011779;28;20206;-80
2023/10/17 11:58:03;;;;;;;4.32;0.93;;;16.00;99.90;;;;;;5013571;28;20202;-81
2023/10/17 12:00:51;;;;;;;5.00;0.95;;;16.00;99.90;;;;;;5014153;28;20193;-81
2023/10/17 12:03:44;;;;;;;3.78;1.13;;;16.00;99.90;;;;;;5014329;28;20241;-81
2023/10/17 12:06:40;;;;;;;3.88;1.00;;;16.00;99.90;;;;;;4996649;28;20238;-82
2023/10/17 12:12:30;;;;;;;5.05;0.77;;;16.00;99.90;;;;;;5004006;28;20202;-80
2023/10/17 12:15:13;;;;;;;8.05;1.23;;;16.10;99.90;;;;;;5016238;28;20743;-82
2023/10/17 12:20:55;;;;;;;7.28;1.20;;;16.10;99.90;;;;;;5010026;28;20650;-80
2023/10/17 12:24:11;;;;;;;5.22;0.85;;;16.20;99.90;;;;;;5006284;28;20700;-79
2023/10/17 12:29:57;;;;;;;7.22;1.20;;;16.20;99.90;;;;;;5017453;28;20213;-80
2023/10/17 12:32:35;;;;;;;8.18;1.13;;;16.20;99.90;;;;;;5016081;28;20210;-80
2023/10/17 12:35:12;;;;;;;3.55;0.85;;;16.20;99.90;;;;;;4998543;28;20248;-80
2023/10/17 12:38:14;;;;;;;4.90;1.10;;;16.20;99.90;;;;;;4999936;28;20226;-81
2023/10/17 12:41:07;;;;;;;6.68;1.30;;;16.20;99.90;;;;;;5018706;28;20240;-80
2023/10/17 12:44:04;;;;;;;6.07;1.02;;;16.20;99.90;;;;;;5018232;28;20275;-80
2023/10/17 12:47:11;;;;;;;6.00;1.30;;;16.30;99.90;;;;;;5016855;28;20285;-80
2023/10/17 12:49:49;;;;;;;6.18;1.17;;;16.30;99.90;;;;;;5021563;28;20190;-81
2023/10/17 12:55:23;;;;;;;6.22;1.27;;;16.30;99.90;;;;;;5018583;28;20202;-80
2023/10/17 12:57:55;;;;;;;7.72;1.15;;;16.30;99.90;;;;;;5013713;28;20222;-80
2023/10/17 13:03:38;;;;;;;6.55;0.98;;;16.30;99.90;;;;;;5014298;28;20222;-80
2023/10/17 13:06:24;;;;;;;7.00;1.05;;;16.30;99.90;;;;;;5011817;28;20206;-80
2023/10/17 13:08:59;;;;;;;8.98;1.48;;;16.40;99.90;;;;;;5012698;28;20205;-80
2023/10/17 13:11:56;;;;;;;5.07;1.00;;;16.50;99.90;;;;;;5011822;28;20255;-80
2023/10/17 13:14:28;;;;;;;9.10;1.17;;;16.50;99.90;;;;;;5008246;28;20217;-79
2023/10/17 13:17:01;;;;;;;4.97;1.02;;;16.50;99.90;;;;;;5011914;28;20209;-80
2023/10/17 13:20:07;;;;;;;4.97;0.93;;;16.50;99.90;;;;;;5010210;28;20202;-79
2023/10/17 13:23:12;;;;;;;6.68;1.35;;;16.50;99.90;;;;;;5009557;28;20230;-79
2023/10/17 13:25:58;;;;;;;6.28;1.38;;;16.50;99.90;;;;;;5012338;28;20224;-79
2023/10/17 13:28:33;;;;;;;6.20;1.25;;;16.50;99.90;;;;;;5009303;28;20206;-79
2023/10/17 13:31:26;;;;;;;4.32;1.20;;;16.50;99.90;;;;;;5011711;28;20198;-80
2023/10/17 13:34:29;;;;;;;8.20;1.40;;;16.60;99.90;;;;;;5002236;28;20206;-80
2023/10/17 13:37:33;;;;;;;6.45;1.33;;;16.60;99.90;;;;;;5014019;28;20205;-80
2023/10/17 13:40:11;;;;;;;6.50;1.20;;;16.50;99.90;;;;;;4997383;28;20210;-80
2023/10/17 13:43:20;;;;;;;6.22;1.30;;;16.60;99.90;;;;;;5002932;28;20194;-80
2023/10/17 13:45:57;;;;;;;5.50;1.23;;;16.60;99.90;;;;;;5000361;28;20208;-79
2023/10/17 13:48:29;;;;;;;7.85;1.40;;;16.60;99.90;;;;;;5018348;28;20193;-78
2023/10/17 13:51:06;;;;;;;6.13;1.00;;;16.60;99.90;;;;;;5020311;28;20554;-78
2023/10/17 13:54:00;;;;;;;4.47;1.00;;;16.50;99.90;;;;;;5009538;28;20201;-79
2023/10/17 13:56:34;;;;;;;4.22;0.90;;;16.50;99.90;;;;;;5025833;28;20593;-79
2023/10/17 13:59:38;;;;;;;6.28;1.23;;;16.50;99.90;;;;;;5028895;28;20213;-79
2023/10/17 14:02:18;;;;;;;5.00;1.05;;;16.50;99.90;;;;;;5028890;28;20198;-79
2023/10/17 14:04:55;;;;;;;5.32;1.38;;;16.50;99.90;;;;;;5008103;28;20214;-79
2023/10/17 14:07:28;;;;;;;7.55;1.25;;;16.50;99.90;;;;;;5018430;28;20276;-79
2023/10/17 14:10:09;;;;;;;5.97;0.90;;;16.40;99.90;;;;;;4996573;28;20205;-78
2023/10/17 14:12:54;;;;;;;6.38;1.25;;;16.40;99.90;;;;;;4996400;28;20285;-78
2023/10/17 14:15:30;;;;;;;3.60;0.85;;;16.40;99.90;;;;;;5012746;28;20222;-79
2023/10/17 14:18:29;;;;;;;4.95;1.00;;;16.40;99.90;;;;;;5005297;28;20361;-78
2023/10/17 14:21:23;;;;;;;5.72;1.20;;;16.40;99.90;;;;;;4998265;28;20203;-79
2023/10/17 14:29:52;;;;;;;4.05;1.23;;;16.20;99.90;;;;;;5007880;28;20208;-79
2023/10/17 14:32:26;;;;;;;5.72;1.30;;;16.20;99.90;;;;;;4999813;28;20209;-79
2023/10/17 14:37:53;;;;;;;6.13;1.70;;;16.20;99.90;;;;;;5000411;28;20658;-79
2023/10/17 14:40:44;;;;;;;6.13;1.42;;;16.10;99.90;;;;;;5001950;28;20245;-80
2023/10/17 14:46:05;;;;;;;6.22;1.30;;;16.00;99.90;;;;;;5003128;28;20691;-80
2023/10/17 14:48:47;;;;;;;6.05;1.35;;;15.90;99.90;;;;;;5006369;28;20268;-80
2023/10/17 14:51:26;;;;;;;7.30;1.20;;;15.80;99.90;;;;;;5016414;28;20225;-79
2023/10/17 14:54:08;;;;;;;6.10;1.20;;;15.80;99.90;;;;;;5017865;28;20202;-79
2023/10/17 14:56:45;;;;;;;4.90;1.20;;;15.70;99.90;;;;;;5018394;28;20637;-79
2023/10/17 14:59:17;;;;;;;4.82;1.00;;;15.70;99.90;;;;;;5022087;28;20272;-79
2023/10/17 15:01:50;;;;;;;6.13;1.23;;;15.60;99.90;;;;;;5023505;28;20212;-79
2023/10/17 15:04:29;;;;;;;6.47;1.38;;;15.60;99.90;;;;;;5046251;28;20225;-79
2023/10/17 15:07:12;;;;;;;5.30;0.90;;;15.60;99.90;;;;;;5053210;28;20172;-78
2023/10/17 15:10:11;;;;;;;4.28;1.00;;;15.60;99.90;;;;;;5050528;28;20648;-79
2023/10/17 15:16:08;;;;;;;6.53;1.30;;;15.70;99.90;;;;;;5014432;28;20688;-78
2023/10/17 15:18:56;;;;;;;4.35;1.10;;;15.60;99.90;;;;;;5003705;28;20583;-78
2023/10/17 15:21:39;;;;;;;4.35;1.20;;;15.60;99.90;;;;;;5014357;28;20197;-77
2023/10/17 15:27:02;;;;;;;4.82;1.30;;;15.70;99.90;;;;;;5012477;28;20772;-78
2023/10/17 15:29:44;;;;;;;4.53;1.00;;;15.80;99.90;;;;;;5005763;28;20206;-78
2023/10/17 15:32:41;;;;;;;4.10;1.30;;;15.80;99.90;;;;;;4996147;28;20271;-78
2023/10/17 15:35:13;;;;;;;6.43;1.42;;;15.80;99.90;;;;;;4999360;28;20202;-77
2023/10/17 15:38:08;;;;;;;5.57;1.33;;;15.80;99.90;;;;;;5012693;28;20217;-77
2023/10/17 15:40:40;;;;;;;3.65;1.20;;;15.80;99.90;;;;;;5013377;28;20664;-78
2023/10/17 15:43:11;;;;;;;5.03;1.10;;;15.80;99.90;;;;;;5013354;28;20197;-79
2023/10/17 15:45:54;;;;;;;4.70;1.10;;;15.80;99.90;;;;;;5003255;28;20241;-79
2023/10/17 15:48:27;;;;;;;3.70;1.10;;;15.80;99.90;;;;;;4999118;28;20305;-80
2023/10/17 15:51:15;;;;;;;6.75;1.55;;;15.80;99.90;;;;;;5000457;28;20233;-80
2023/10/17 15:53:48;;;;;;;4.22;1.20;;;15.80;99.90;;;;;;4997120;28;20202;-80
2023/10/17 15:56:34;;;;;;;5.00;1.35;;;15.80;99.90;;;;;;5014345;28;20186;-80
2023/10/17 15:59:09;;;;;;;5.55;1.10;;;15.80;99.90;;;;;;5005929;28;20529;-80
2023/10/17 16:04:46;;;;;;;5.25;1.15;;;15.70;99.90;;;;;;4999998;28;20281;-81
2023/10/17 16:07:20;;;;;;;7.03;1.48;;;15.80;99.90;;;;;;5003349;28;20244;-81
2023/10/17 16:10:03;;;;;;;5.60;1.25;;;15.80;99.90;;;;;;5008413;28;20229;-80
2023/10/17 16:12:39;;;;;;;3.42;0.90;;;15.70;99.90;;;;;;5013229;28;20226;-80
2023/10/17 16:15:30;;;;;;;4.25;1.10;;;15.70;99.90;;;;;;5017486;28;20321;-80
2023/10/17 16:18:16;;;;;;;5.90;1.27;;;15.60;99.90;;;;;;4994212;28;20219;-80
2023/10/17 16:24:02;;;;;;;3.72;1.05;;;15.50;99.90;;;;;;5011201;28;20230;-79
2023/10/17 16:27:23;;;;;;;3.30;0.90;;;15.50;99.90;;;;;;4999696;28;20225;-79
2023/10/17 16:30:26;;;;;;;2.65;0.95;;;15.40;99.90;;;;;;5010986;28;20205;-80
2023/10/17 16:36:16;;;;;;;3.50;0.95;;;15.40;99.90;;;;;;5001500;28;20198;-80
2023/10/17 16:39:11;;;;;;;2.95;0.98;;;15.40;99.90;;;;;;4992527;28;20222;-80
2023/10/17 16:41:44;;;;;;;3.22;1.17;;;15.30;99.90;;;;;;4991559;28;20226;-80
2023/10/17 16:44:18;;;;;;;5.43;0.90;;;15.30;99.90;;;;;;5009907;28;20256;-80
2023/10/17 16:49:56;;;;;;;4.45;1.00;;;15.40;99.90;;;;;;4993406;28;20257;-79
2023/10/17 16:52:56;;;;;;;3.25;1.05;;;15.40;99.90;;;;;;5009099;28;20210;-79
2023/10/17 16:55:33;;;;;;;3.10;1.20;;;15.50;99.90;;;;;;4993015;28;20261;-80
2023/10/17 16:58:38;;;;;;;3.80;1.13;;;15.50;99.90;;;;;;4996782;28;20791;-79
2023/10/17 17:01:21;;;;;;;3.45;1.00;;;15.50;99.90;;;;;;5015100;28;20193;-79
2023/10/17 17:04:00;;;;;;;5.22;1.15;;;15.50;99.90;;;;;;4997178;28;20253;-79
2023/10/17 17:06:36;;;;;;;4.28;1.10;;;15.50;99.90;;;;;;5004143;28;20733;-80
2023/10/17 17:09:19;;;;;;;5.65;1.23;;;15.50;99.90;;;;;;5029035;28;20232;-81
2023/10/17 17:11:56;;;;;;;4.00;0.88;;;15.50;99.90;;;;;;4997707;28;20237;-81
2023/10/17 17:14:49;;;;;;;3.90;1.15;;;15.50;99.90;;;;;;5010832;28;20238;-81
2023/10/17 17:17:33;;;;;;;2.47;0.60;;;15.40;99.90;;;;;;5031393;28;20189;-81
2023/10/17 17:20:16;;;;;;;3.28;1.00;;;15.40;99.90;;;;;;5029807;28;20521;-81
2023/10/17 17:25:48;;;;;;;1.90;0.70;;;15.20;99.90;;;;;;5012979;28;20240;-81
2023/10/17 17:28:20;;;;;;;4.80;1.10;;;15.30;99.90;;;;;;5011448;28;20198;-81
2023/10/17 17:30:58;;;;;;;5.43;1.00;;;15.30;99.90;;;;;;5006181;28;20194;-81
2023/10/17 17:33:47;;;;;;;3.85;1.08;;;15.40;99.90;;;;;;5014957;28;20248;-81
2023/10/17 17:36:29;;;;;;;3.40;0.88;;;15.40;99.90;;;;;;5014921;28;20198;-81
2023/10/17 17:39:07;;;;;;;4.30;1.25;;;15.40;99.90;;;;;;5015063;28;20205;-82